createdAt,value
2019-05-07T00:00:07.165Z,0.00
2019-05-07T00:01:07.084Z,0.00
2019-05-07T00:02:07.006Z,0.00
2019-05-07T00:03:06.922Z,0.00
2019-05-07T00:04:06.841Z,0.00
2019-05-07T00:05:06.812Z,0.00
2019-05-07T00:06:06.679Z,0.00
2019-05-07T00:07:06.596Z,0.00
2019-05-07T00:08:06.516Z,0.00
2019-05-07T00:09:06.434Z,0.00
2019-05-07T00:10:06.356Z,0.00
2019-05-07T00:11:06.271Z,0.00
2019-05-07T00:12:06.220Z,0.00
2019-05-07T00:13:06.110Z,0.00
2019-05-07T00:14:06.030Z,0.00
2019-05-07T00:15:05.949Z,0.00
2019-05-07T00:16:05.867Z,0.00
2019-05-07T00:17:05.796Z,0.00
2019-05-07T00:18:05.705Z,0.00
2019-05-07T00:19:05.624Z,0.00
2019-05-07T00:20:05.542Z,0.00
2019-05-07T00:21:05.461Z,0.00
2019-05-07T00:22:05.380Z,0.00
2019-05-07T00:23:05.299Z,0.00
2019-05-07T00:24:05.217Z,0.00
2019-05-07T00:25:05.237Z,0.00
2019-05-07T00:26:05.058Z,0.00
2019-05-07T00:27:04.973Z,0.00
2019-05-07T00:28:04.893Z,0.00
2019-05-07T00:29:04.812Z,0.00
2019-05-07T00:30:04.782Z,0.00
2019-05-07T00:31:04.648Z,0.00
2019-05-07T00:32:04.568Z,0.00
2019-05-07T00:33:04.487Z,0.00
2019-05-07T00:34:04.406Z,0.00
2019-05-07T00:35:04.424Z,0.00
2019-05-07T00:36:04.242Z,0.00
2019-05-07T00:37:06.853Z,0.00
2019-05-07T00:38:04.080Z,0.00
2019-05-07T00:39:03.998Z,0.00
2019-05-07T00:40:03.920Z,0.00
2019-05-07T00:41:03.836Z,0.00
2019-05-07T00:42:03.755Z,0.00
2019-05-07T00:43:03.673Z,0.00
2019-05-07T00:44:03.592Z,0.00
2019-05-07T00:45:20.306Z,0.00
2019-05-07T00:46:03.437Z,0.00
2019-05-07T00:47:03.348Z,0.00
2019-05-07T00:48:03.267Z,0.00
2019-05-07T00:49:03.189Z,0.00
2019-05-07T00:50:03.361Z,0.00
2019-05-07T00:51:03.023Z,0.00
2019-05-07T00:52:02.983Z,0.00
2019-05-07T00:53:02.861Z,0.00
2019-05-07T00:54:02.950Z,0.00
2019-05-07T00:55:02.987Z,0.00
2019-05-07T00:56:02.617Z,0.00
2019-05-07T00:57:03.191Z,0.00
2019-05-07T00:58:02.536Z,0.00
2019-05-07T00:59:02.419Z,0.00
2019-05-07T01:00:02.373Z,0.00
2019-05-07T01:01:02.654Z,0.00
2019-05-07T01:02:02.360Z,0.00
2019-05-07T01:03:03.056Z,0.00
2019-05-07T01:04:02.692Z,0.00
2019-05-07T01:05:02.998Z,0.00
2019-05-07T01:06:02.159Z,0.00
2019-05-07T01:07:02.777Z,0.00
2019-05-07T01:08:02.560Z,0.00
2019-05-07T01:09:03.129Z,0.00
2019-05-07T01:10:02.209Z,0.00
2019-05-07T01:11:02.215Z,0.00
2019-05-07T01:12:03.127Z,0.00
2019-05-07T01:13:02.714Z,0.00
2019-05-07T01:14:02.759Z,0.00
2019-05-07T01:15:02.993Z,0.00
2019-05-07T01:16:02.486Z,0.00
2019-05-07T01:17:02.408Z,0.00
2019-05-07T01:18:02.906Z,0.00
2019-05-07T01:19:02.050Z,0.00
2019-05-07T01:20:02.932Z,0.00
2019-05-07T01:21:02.404Z,0.00
2019-05-07T01:22:00.502Z,0.00
2019-05-07T01:23:02.531Z,0.00
2019-05-07T01:24:00.337Z,0.00
2019-05-07T01:25:02.253Z,0.00
2019-05-07T01:26:00.175Z,0.00
2019-05-07T01:27:02.069Z,0.00
2019-05-07T01:28:02.440Z,0.00
2019-05-07T01:29:02.509Z,0.00
2019-05-07T01:30:02.323Z,0.00
2019-05-07T01:31:02.090Z,0.00
2019-05-07T01:31:59.688Z,0.00
2019-05-07T01:32:59.657Z,0.00
2019-05-07T01:33:59.527Z,0.00
2019-05-07T01:34:59.456Z,0.00
2019-05-07T01:35:59.363Z,0.00
2019-05-07T01:36:59.282Z,0.00
2019-05-07T01:37:59.202Z,0.00
2019-05-07T01:38:59.122Z,0.00
2019-05-07T01:39:59.038Z,0.00
2019-05-07T01:40:58.956Z,0.00
2019-05-07T01:41:58.875Z,0.00
2019-05-07T01:42:58.793Z,0.00
2019-05-07T01:43:58.711Z,0.00
2019-05-07T01:44:58.631Z,0.00
2019-05-07T01:45:58.549Z,0.00
2019-05-07T01:46:58.469Z,0.00
2019-05-07T01:47:58.388Z,0.00
2019-05-07T01:48:58.304Z,0.00
2019-05-07T01:49:58.225Z,0.00
2019-05-07T01:50:58.142Z,0.00
2019-05-07T01:51:58.060Z,0.00
2019-05-07T01:52:58.080Z,0.00
2019-05-07T01:53:57.898Z,0.00
2019-05-07T01:54:57.815Z,0.00
2019-05-07T01:55:57.735Z,0.00
2019-05-07T01:56:57.657Z,0.00
2019-05-07T01:57:57.672Z,0.00
2019-05-07T01:58:57.490Z,0.00
2019-05-07T01:59:57.409Z,0.00
2019-05-07T02:00:57.329Z,0.00
2019-05-07T02:01:57.245Z,0.00
2019-05-07T02:02:57.213Z,0.00
2019-05-07T02:03:57.088Z,0.00
2019-05-07T02:04:57.001Z,0.00
2019-05-07T02:05:56.920Z,0.00
2019-05-07T02:06:56.838Z,0.00
2019-05-07T02:07:56.757Z,0.00
2019-05-07T02:08:56.775Z,0.00
2019-05-07T02:09:56.595Z,0.00
2019-05-07T02:10:56.512Z,0.00
2019-05-07T02:11:56.432Z,0.00
2019-05-07T02:12:56.350Z,0.00
2019-05-07T02:13:56.275Z,0.00
2019-05-07T02:14:56.186Z,0.00
2019-05-07T02:16:00.830Z,0.00
2019-05-07T02:16:56.023Z,0.00
2019-05-07T02:17:55.943Z,0.00
2019-05-07T02:18:55.860Z,0.00
2019-05-07T02:19:55.779Z,0.00
2019-05-07T02:20:55.697Z,0.00
2019-05-07T02:21:55.617Z,0.00
2019-05-07T02:22:55.534Z,0.00
2019-05-07T02:23:55.453Z,0.00
2019-05-07T02:24:55.374Z,0.00
2019-05-07T02:25:55.290Z,0.00
2019-05-07T02:26:55.209Z,0.00
2019-05-07T02:27:55.128Z,0.00
2019-05-07T02:28:55.046Z,0.00
2019-05-07T02:29:54.966Z,0.00
2019-05-07T02:30:54.884Z,0.00
2019-05-07T02:31:54.803Z,0.00
2019-05-07T02:32:54.724Z,0.00
2019-05-07T02:33:54.640Z,0.00
2019-05-07T02:34:54.824Z,0.00
2019-05-07T02:35:54.478Z,0.00
2019-05-07T02:36:54.396Z,0.00
2019-05-07T02:37:56.797Z,0.00
2019-05-07T02:38:54.235Z,0.00
2019-05-07T02:39:54.251Z,0.00
2019-05-07T02:40:54.071Z,0.00
2019-05-07T02:41:54.414Z,0.00
2019-05-07T02:42:54.284Z,0.00
2019-05-07T02:43:53.991Z,0.00
2019-05-07T02:44:53.748Z,0.00
2019-05-07T02:45:53.795Z,0.00
2019-05-07T02:46:53.583Z,0.00
2019-05-07T02:47:53.504Z,0.00
2019-05-07T02:48:53.746Z,0.00
2019-05-07T02:49:53.798Z,0.00
2019-05-07T02:50:53.994Z,0.00
2019-05-07T02:51:53.332Z,0.00
2019-05-07T02:52:53.855Z,0.00
2019-05-07T02:53:53.698Z,0.00
2019-05-07T02:54:53.927Z,0.00
2019-05-07T02:55:53.050Z,0.00
2019-05-07T02:56:53.433Z,0.00
2019-05-07T02:57:54.064Z,0.00
2019-05-07T02:58:52.828Z,0.00
2019-05-07T02:59:54.507Z,0.00
2019-05-07T03:00:53.304Z,0.00
2019-05-07T03:01:53.730Z,0.00
2019-05-07T03:02:53.089Z,0.00
2019-05-07T03:03:52.888Z,0.00
2019-05-07T03:04:53.276Z,0.00
2019-05-07T03:05:53.738Z,0.00
2019-05-07T03:06:54.303Z,0.00
2019-05-07T03:07:53.644Z,0.00
2019-05-07T03:08:53.405Z,0.00
2019-05-07T03:09:53.826Z,0.00
2019-05-07T03:10:52.714Z,0.00
2019-05-07T03:11:52.929Z,0.00
2019-05-07T03:12:53.670Z,0.00
2019-05-07T03:13:53.710Z,0.00
2019-05-07T03:14:53.838Z,0.00
2019-05-07T03:15:53.778Z,0.00
2019-05-07T03:16:53.651Z,0.00
2019-05-07T03:17:53.687Z,0.00
2019-05-07T03:18:53.249Z,0.00
2019-05-07T03:19:53.416Z,0.00
2019-05-07T03:20:53.443Z,0.00
2019-05-07T03:21:53.895Z,0.00
2019-05-07T03:22:53.581Z,0.00
2019-05-07T03:23:53.656Z,0.00
2019-05-07T03:24:52.977Z,0.00
2019-05-07T03:25:53.828Z,0.00
2019-05-07T03:26:53.396Z,0.00
2019-05-07T03:27:53.348Z,0.00
2019-05-07T03:28:53.214Z,0.00
2019-05-07T03:29:53.195Z,0.00
2019-05-07T03:30:50.012Z,0.00
2019-05-07T03:31:55.590Z,0.00
2019-05-07T03:32:49.850Z,0.00
2019-05-07T03:33:55.355Z,0.00
2019-05-07T03:34:49.680Z,0.00
2019-05-07T03:35:55.513Z,0.00
2019-05-07T03:36:55.623Z,0.00
2019-05-07T03:37:49.461Z,0.00
2019-05-07T03:38:49.353Z,0.00
2019-05-07T03:39:49.272Z,0.00
2019-05-07T03:40:49.190Z,0.00
2019-05-07T03:41:49.110Z,0.00
2019-05-07T03:42:49.029Z,0.00
2019-05-07T03:43:48.944Z,0.00
2019-05-07T03:44:48.864Z,0.00
2019-05-07T03:45:48.783Z,0.00
2019-05-07T03:47:01.319Z,0.00
2019-05-07T03:47:48.619Z,0.00
2019-05-07T03:48:48.537Z,0.00
2019-05-07T03:49:48.456Z,0.00
2019-05-07T03:50:48.375Z,0.00
2019-05-07T03:51:48.293Z,0.00
2019-05-07T03:52:48.214Z,0.00
2019-05-07T03:53:48.134Z,0.00
2019-05-07T03:54:48.048Z,0.00
2019-05-07T03:55:47.967Z,0.00
2019-05-07T03:56:47.884Z,5.63
2019-05-07T03:57:47.806Z,5.63
2019-05-07T03:58:47.721Z,5.63
2019-05-07T03:59:47.638Z,5.63
2019-05-07T04:00:47.558Z,5.63
2019-05-07T04:01:47.476Z,5.63
2019-05-07T04:02:47.396Z,5.63
2019-05-07T04:03:47.312Z,5.63
2019-05-07T04:04:47.232Z,5.63
2019-05-07T04:05:47.149Z,5.63
2019-05-07T04:06:47.067Z,5.63
2019-05-07T04:07:46.987Z,5.63
2019-05-07T04:08:46.905Z,11.25
2019-05-07T04:09:46.826Z,11.25
2019-05-07T04:10:46.746Z,11.25
2019-05-07T04:11:46.660Z,11.25
2019-05-07T04:12:46.582Z,11.25
2019-05-07T04:13:46.521Z,16.88
2019-05-07T04:14:46.515Z,16.88
2019-05-07T04:15:46.335Z,16.88
2019-05-07T04:16:46.252Z,16.88
2019-05-07T04:17:46.172Z,16.88
2019-05-07T04:18:46.090Z,22.50
2019-05-07T04:19:46.010Z,22.50
2019-05-07T04:20:46.028Z,22.50
2019-05-07T04:21:45.848Z,28.13
2019-05-07T04:22:45.766Z,28.13
2019-05-07T04:23:45.687Z,28.13
2019-05-07T04:24:45.604Z,33.75
2019-05-07T04:25:45.535Z,33.75
2019-05-07T04:26:45.441Z,33.75
2019-05-07T04:27:47.168Z,39.38
2019-05-07T04:28:45.278Z,39.38
2019-05-07T04:29:45.196Z,39.38
2019-05-07T04:30:45.166Z,39.38
2019-05-07T04:31:45.036Z,39.38
2019-05-07T04:32:44.954Z,45.00
2019-05-07T04:33:44.875Z,45.00
2019-05-07T04:34:44.793Z,45.00
2019-05-07T04:35:44.709Z,45.00
2019-05-07T04:36:44.630Z,45.00
2019-05-07T04:37:44.563Z,45.00
2019-05-07T04:38:44.466Z,50.63
2019-05-07T04:39:44.386Z,50.63
2019-05-07T04:40:44.314Z,50.63
2019-05-07T04:41:44.225Z,50.63
2019-05-07T04:42:44.142Z,50.63
2019-05-07T04:43:44.070Z,56.25
2019-05-07T04:44:43.987Z,56.25
2019-05-07T04:45:44.000Z,56.25
2019-05-07T04:46:48.002Z,56.25
2019-05-07T04:47:47.582Z,61.88
2019-05-07T04:48:44.245Z,61.88
2019-05-07T04:49:43.751Z,61.88
2019-05-07T04:50:47.571Z,67.50
2019-05-07T04:51:43.602Z,67.50
2019-05-07T04:52:43.892Z,73.13
2019-05-07T04:53:43.283Z,73.13
2019-05-07T04:54:43.872Z,73.13
2019-05-07T04:55:43.301Z,78.75
2019-05-07T04:56:43.869Z,84.38
2019-05-07T04:57:43.869Z,84.38
2019-05-07T04:58:43.504Z,84.38
2019-05-07T04:59:43.116Z,84.38
2019-05-07T05:00:43.341Z,90.00
2019-05-07T05:01:43.629Z,90.00
2019-05-07T05:02:43.539Z,84.38
2019-05-07T05:03:43.663Z,84.38
2019-05-07T05:04:43.948Z,84.38
2019-05-07T05:05:43.552Z,90.00
2019-05-07T05:06:42.461Z,90.00
2019-05-07T05:07:43.079Z,90.00
2019-05-07T05:08:43.574Z,95.63
2019-05-07T05:09:42.679Z,95.63
2019-05-07T05:10:43.356Z,101.25
2019-05-07T05:11:43.906Z,106.88
2019-05-07T05:12:42.808Z,106.88
2019-05-07T05:13:44.397Z,112.50
2019-05-07T05:14:43.700Z,118.13
2019-05-07T05:15:43.169Z,118.13
2019-05-07T05:16:42.539Z,123.75
2019-05-07T05:17:50.030Z,123.75
2019-05-07T05:18:42.014Z,129.38
2019-05-07T05:19:41.158Z,129.38
2019-05-07T05:20:42.181Z,129.38
2019-05-07T05:21:41.979Z,129.38
2019-05-07T05:22:42.535Z,129.38
2019-05-07T05:23:41.955Z,129.38
2019-05-07T05:24:42.439Z,129.38
2019-05-07T05:25:42.961Z,129.38
2019-05-07T05:26:41.922Z,135.00
2019-05-07T05:27:42.822Z,129.38
2019-05-07T05:28:41.919Z,129.38
2019-05-07T05:29:40.352Z,135.00
2019-05-07T05:30:42.371Z,140.63
2019-05-07T05:31:42.109Z,140.63
2019-05-07T05:32:42.303Z,140.63
2019-05-07T05:33:41.954Z,146.25
2019-05-07T05:34:39.950Z,146.25
2019-05-07T05:35:39.873Z,146.25
2019-05-07T05:36:39.791Z,146.25
2019-05-07T05:37:39.711Z,146.25
2019-05-07T05:38:39.630Z,146.25
2019-05-07T05:39:39.555Z,151.88
2019-05-07T05:40:39.471Z,157.50
2019-05-07T05:41:39.491Z,157.50
2019-05-07T05:42:39.313Z,163.13
2019-05-07T05:43:39.235Z,168.75
2019-05-07T05:44:39.153Z,180.00
2019-05-07T05:45:39.073Z,180.00
2019-05-07T05:46:38.991Z,174.38
2019-05-07T05:47:42.106Z,180.00
2019-05-07T05:48:38.833Z,174.38
2019-05-07T05:49:38.754Z,174.38
2019-05-07T05:50:38.674Z,174.38
2019-05-07T05:51:38.594Z,180.00
2019-05-07T05:52:38.528Z,180.00
2019-05-07T05:53:38.435Z,185.63
2019-05-07T05:54:38.357Z,191.25
2019-05-07T05:55:38.278Z,191.25
2019-05-07T05:56:38.198Z,191.25
2019-05-07T05:57:38.120Z,191.25
2019-05-07T05:58:38.040Z,202.50
2019-05-07T05:59:49.003Z,208.13
2019-05-07T06:00:37.882Z,213.75
2019-05-07T06:01:37.802Z,213.75
2019-05-07T06:02:37.726Z,213.75
2019-05-07T06:03:37.643Z,208.13
2019-05-07T06:04:37.565Z,208.13
2019-05-07T06:05:37.487Z,208.13
2019-05-07T06:06:37.408Z,213.75
2019-05-07T06:07:37.327Z,213.75
2019-05-07T06:08:37.254Z,225.00
2019-05-07T06:09:37.170Z,241.88
2019-05-07T06:10:37.091Z,247.50
2019-05-07T06:11:37.012Z,247.50
2019-05-07T06:12:36.932Z,247.50
2019-05-07T06:13:36.854Z,247.50
2019-05-07T06:14:36.773Z,241.88
2019-05-07T06:15:36.696Z,241.88
2019-05-07T06:16:36.834Z,247.50
2019-05-07T06:17:36.540Z,253.13
2019-05-07T06:18:36.459Z,253.13
2019-05-07T06:19:36.379Z,247.50
2019-05-07T06:20:36.304Z,247.50
2019-05-07T06:21:36.223Z,241.88
2019-05-07T06:22:36.149Z,247.50
2019-05-07T06:23:36.065Z,253.13
2019-05-07T06:24:35.986Z,258.75
2019-05-07T06:25:35.907Z,264.38
2019-05-07T06:26:35.829Z,270.00
2019-05-07T06:27:35.749Z,264.38
2019-05-07T06:28:35.673Z,264.38
2019-05-07T06:29:35.599Z,258.75
2019-05-07T06:30:35.514Z,253.13
2019-05-07T06:31:35.435Z,253.13
2019-05-07T06:32:35.357Z,253.13
2019-05-07T06:33:35.280Z,264.38
2019-05-07T06:34:35.201Z,258.75
2019-05-07T06:35:35.122Z,258.75
2019-05-07T06:36:35.044Z,253.13
2019-05-07T06:37:34.967Z,247.50
2019-05-07T06:38:34.888Z,247.50
2019-05-07T06:39:34.811Z,236.25
2019-05-07T06:40:34.731Z,230.63
2019-05-07T06:41:34.654Z,225.00
2019-05-07T06:42:34.575Z,225.00
2019-05-07T06:43:34.497Z,230.63
2019-05-07T06:44:34.422Z,241.88
2019-05-07T06:45:35.479Z,258.75
2019-05-07T06:46:34.271Z,281.25
2019-05-07T06:47:34.186Z,292.50
2019-05-07T06:48:41.801Z,309.38
2019-05-07T06:49:34.031Z,326.25
2019-05-07T06:50:33.951Z,326.25
2019-05-07T06:51:33.873Z,348.75
2019-05-07T06:52:33.803Z,354.38
2019-05-07T06:53:33.868Z,354.38
2019-05-07T06:54:33.641Z,354.38
2019-05-07T06:55:33.564Z,354.38
2019-05-07T06:56:33.485Z,354.38
2019-05-07T06:57:33.410Z,354.38
2019-05-07T06:58:33.331Z,360.00
2019-05-07T06:59:34.732Z,354.38
2019-05-07T07:00:33.175Z,348.75
2019-05-07T07:01:33.099Z,348.75
2019-05-07T07:02:33.020Z,337.50
2019-05-07T07:03:32.943Z,331.88
2019-05-07T07:04:33.207Z,337.50
2019-05-07T07:05:33.088Z,337.50
2019-05-07T07:06:32.720Z,331.88
2019-05-07T07:07:36.542Z,331.88
2019-05-07T07:08:32.635Z,337.50
2019-05-07T07:09:33.002Z,337.50
2019-05-07T07:10:32.405Z,337.50
2019-05-07T07:11:32.372Z,348.75
2019-05-07T07:12:33.119Z,354.38
2019-05-07T07:13:32.385Z,360.00
2019-05-07T07:14:33.213Z,360.00
2019-05-07T07:15:32.215Z,348.75
2019-05-07T07:16:32.535Z,343.13
2019-05-07T07:17:32.662Z,343.13
2019-05-07T07:18:32.403Z,337.50
2019-05-07T07:19:32.574Z,337.50
2019-05-07T07:20:32.588Z,337.50
2019-05-07T07:21:32.680Z,348.75
2019-05-07T07:22:32.063Z,360.00
2019-05-07T07:23:32.315Z,371.25
2019-05-07T07:24:32.931Z,388.13
2019-05-07T07:25:32.558Z,393.75
2019-05-07T07:26:32.779Z,393.75
2019-05-07T07:27:32.233Z,388.13
2019-05-07T07:28:32.611Z,399.38
2019-05-07T07:29:32.401Z,405.00
2019-05-07T07:30:32.619Z,421.88
2019-05-07T07:31:31.918Z,427.50
2019-05-07T07:32:31.767Z,433.13
2019-05-07T07:33:31.972Z,427.50
2019-05-07T07:34:33.054Z,433.13
2019-05-07T07:35:32.189Z,433.13
2019-05-07T07:36:32.017Z,433.13
2019-05-07T07:37:32.024Z,438.75
2019-05-07T07:38:30.265Z,438.75
2019-05-07T07:39:32.179Z,433.13
2019-05-07T07:40:30.111Z,421.88
2019-05-07T07:41:32.498Z,416.25
2019-05-07T07:42:31.894Z,416.25
2019-05-07T07:43:29.883Z,421.88
2019-05-07T07:44:29.807Z,416.25
2019-05-07T07:45:32.162Z,416.25
2019-05-07T07:46:29.654Z,410.63
2019-05-07T07:47:29.579Z,410.63
2019-05-07T07:48:31.909Z,405.00
2019-05-07T07:49:29.429Z,399.38
2019-05-07T07:50:29.350Z,399.38
2019-05-07T07:51:40.637Z,405.00
2019-05-07T07:52:29.200Z,405.00
2019-05-07T07:53:32.330Z,399.38
2019-05-07T07:54:29.047Z,388.13
2019-05-07T07:55:28.972Z,382.50
2019-05-07T07:56:28.897Z,376.88
2019-05-07T07:57:28.820Z,371.25
2019-05-07T07:58:31.476Z,376.88
2019-05-07T07:59:28.668Z,376.88
2019-05-07T08:00:30.053Z,382.50
2019-05-07T08:01:28.518Z,382.50
2019-05-07T08:02:28.441Z,382.50
2019-05-07T08:03:28.366Z,382.50
2019-05-07T08:04:28.293Z,388.13
2019-05-07T08:05:28.216Z,393.75
2019-05-07T08:06:28.143Z,399.38
2019-05-07T08:07:28.067Z,405.00
2019-05-07T08:08:27.992Z,410.63
2019-05-07T08:09:27.913Z,410.63
2019-05-07T08:10:27.834Z,421.88
2019-05-07T08:11:27.760Z,427.50
2019-05-07T08:12:27.686Z,438.75
2019-05-07T08:13:27.610Z,444.38
2019-05-07T08:14:27.533Z,461.25
2019-05-07T08:15:27.478Z,466.88
2019-05-07T08:16:27.383Z,466.88
2019-05-07T08:17:27.309Z,478.13
2019-05-07T08:18:27.366Z,472.50
2019-05-07T08:19:27.156Z,472.50
2019-05-07T08:20:27.081Z,461.25
2019-05-07T08:21:27.005Z,455.63
2019-05-07T08:22:26.929Z,444.38
2019-05-07T08:23:26.855Z,438.75
2019-05-07T08:24:26.779Z,427.50
2019-05-07T08:25:26.704Z,427.50
2019-05-07T08:26:26.629Z,427.50
2019-05-07T08:27:26.554Z,438.75
2019-05-07T08:28:26.577Z,444.38
2019-05-07T08:29:26.402Z,450.00
2019-05-07T08:30:26.326Z,461.25
2019-05-07T08:31:26.249Z,472.50
2019-05-07T08:32:26.377Z,472.50
2019-05-07T08:33:26.100Z,483.75
2019-05-07T08:34:26.025Z,495.00
2019-05-07T08:35:25.950Z,495.00
2019-05-07T08:36:25.875Z,500.63
2019-05-07T08:37:25.799Z,506.25
2019-05-07T08:38:25.723Z,506.25
2019-05-07T08:39:25.647Z,495.00
2019-05-07T08:40:25.572Z,489.38
2019-05-07T08:41:25.501Z,478.13
2019-05-07T08:42:25.421Z,472.50
2019-05-07T08:43:25.345Z,466.88
2019-05-07T08:44:25.283Z,461.25
2019-05-07T08:45:25.252Z,450.00
2019-05-07T08:46:25.123Z,455.63
2019-05-07T08:47:25.047Z,461.25
2019-05-07T08:48:24.967Z,461.25
2019-05-07T08:49:35.794Z,455.63
2019-05-07T08:50:24.817Z,461.25
2019-05-07T08:51:24.741Z,461.25
2019-05-07T08:52:26.165Z,461.25
2019-05-07T08:53:24.595Z,461.25
2019-05-07T08:54:24.514Z,466.88
2019-05-07T08:55:24.439Z,472.50
2019-05-07T08:56:24.369Z,478.13
2019-05-07T08:57:24.291Z,472.50
2019-05-07T08:58:24.213Z,472.50
2019-05-07T08:59:24.138Z,478.13
2019-05-07T09:00:24.062Z,472.50
2019-05-07T09:01:23.988Z,466.88
2019-05-07T09:02:23.910Z,472.50
2019-05-07T09:03:25.037Z,472.50
2019-05-07T09:04:23.760Z,472.50
2019-05-07T09:05:23.684Z,478.13
2019-05-07T09:06:23.609Z,478.13
2019-05-07T09:07:23.533Z,495.00
2019-05-07T09:08:23.458Z,511.88
2019-05-07T09:09:23.383Z,523.13
2019-05-07T09:10:23.306Z,534.38
2019-05-07T09:11:23.231Z,545.63
2019-05-07T09:12:23.205Z,551.25
2019-05-07T09:13:23.081Z,568.13
2019-05-07T09:14:26.145Z,573.75
2019-05-07T09:15:22.931Z,573.75
2019-05-07T09:16:23.317Z,568.13
2019-05-07T09:17:23.125Z,551.25
2019-05-07T09:18:22.986Z,556.88
2019-05-07T09:19:22.631Z,562.50
2019-05-07T09:20:22.938Z,590.63
2019-05-07T09:21:22.807Z,613.13
2019-05-07T09:22:23.108Z,635.63
2019-05-07T09:23:22.375Z,658.13
2019-05-07T09:24:22.582Z,658.13
2019-05-07T09:25:22.402Z,652.50
2019-05-07T09:26:22.184Z,630.00
2019-05-07T09:27:22.372Z,590.63
2019-05-07T09:28:22.354Z,545.63
2019-05-07T09:31:26.880Z,528.75
2019-05-07T09:32:26.805Z,523.13
2019-05-07T09:33:26.730Z,506.25
2019-05-07T09:34:26.656Z,461.25
2019-05-07T09:35:26.579Z,427.50
2019-05-07T09:36:26.505Z,388.13
2019-05-07T09:37:26.428Z,337.50
2019-05-07T09:42:46.955Z,281.25
2019-05-07T09:43:51.742Z,275.63
2019-05-07T09:44:46.806Z,258.75
2019-05-07T09:45:46.727Z,253.13
2019-05-07T09:46:46.830Z,236.25
2019-05-07T09:48:34.065Z,219.38
2019-05-07T09:49:33.990Z,219.38
2019-05-07T09:51:33.837Z,208.13
2019-05-07T09:52:33.763Z,208.13
2019-05-07T09:53:33.688Z,208.13
2019-05-07T09:54:33.611Z,202.50
2019-05-07T09:55:33.536Z,185.63
2019-05-07T09:56:33.460Z,174.38
2019-05-07T09:57:34.800Z,168.75
2019-05-07T09:58:38.441Z,163.13
2019-05-07T09:59:33.234Z,157.50
2019-05-07T10:00:33.361Z,157.50
2019-05-07T10:01:33.084Z,163.13
2019-05-07T10:02:33.006Z,168.75
2019-05-07T10:03:32.931Z,174.38
2019-05-07T10:04:32.905Z,185.63
2019-05-07T10:05:32.781Z,196.88
2019-05-07T10:06:32.707Z,202.50
2019-05-07T10:07:32.686Z,202.50
2019-05-07T10:08:32.553Z,208.13
2019-05-07T10:09:32.924Z,225.00
2019-05-07T10:10:32.979Z,225.00
2019-05-07T10:11:32.855Z,236.25
2019-05-07T10:12:32.968Z,258.75
2019-05-07T10:13:32.984Z,298.13
2019-05-07T10:14:33.078Z,348.75
2019-05-07T10:15:33.085Z,410.63
2019-05-07T10:16:31.950Z,466.88
2019-05-07T10:17:32.731Z,511.88
2019-05-07T10:18:32.118Z,534.38
2019-05-07T10:19:32.514Z,528.75
2019-05-07T10:20:32.735Z,540.00
2019-05-07T10:21:31.573Z,590.63
2019-05-07T10:22:32.146Z,658.13
2019-05-07T10:23:31.434Z,703.13
2019-05-07T10:24:31.347Z,714.38
2019-05-07T10:25:32.782Z,680.63
2019-05-07T10:26:32.176Z,630.00
2019-05-07T10:27:32.447Z,590.63
2019-05-07T10:28:32.077Z,585.00
2019-05-07T10:29:32.235Z,585.00
2019-05-07T10:30:32.177Z,573.75
2019-05-07T10:31:32.031Z,601.88
2019-05-07T10:32:32.172Z,624.38
2019-05-07T10:33:31.965Z,641.25
2019-05-07T10:34:30.601Z,675.00
2019-05-07T10:35:33.163Z,736.88
2019-05-07T10:36:32.078Z,781.88
2019-05-07T10:39:51.979Z,793.13
2019-05-07T10:42:48.591Z,680.63
2019-05-07T10:43:48.313Z,630.00
2019-05-07T10:44:48.237Z,613.13
2019-05-07T10:45:48.172Z,624.38
2019-05-07T10:46:48.090Z,613.13
2019-05-07T10:47:48.015Z,613.13
2019-05-07T10:48:47.939Z,630.00
2019-05-07T10:49:47.864Z,641.25
2019-05-07T10:50:47.791Z,680.63
2019-05-07T10:51:47.716Z,703.13
2019-05-07T10:52:47.642Z,770.63
2019-05-07T10:53:47.567Z,1181.25
2019-05-07T10:54:59.466Z,945.00
2019-05-07T10:55:47.416Z,1158.75
2019-05-07T10:56:47.342Z,945.00
2019-05-07T10:57:47.268Z,984.38
2019-05-07T10:58:47.191Z,1310.63
2019-05-07T10:59:47.121Z,1451.25
2019-05-07T11:00:47.043Z,961.88
2019-05-07T11:01:46.966Z,759.38
2019-05-07T11:02:46.892Z,826.88
2019-05-07T11:03:46.918Z,646.88
2019-05-07T11:04:46.744Z,663.75
2019-05-07T11:05:46.667Z,697.50
2019-05-07T11:07:46.519Z,793.13
2019-05-07T11:08:46.544Z,855.00
2019-05-07T11:09:46.369Z,894.38
2019-05-07T11:10:46.294Z,888.75
2019-05-07T11:11:46.222Z,967.50
2019-05-07T11:12:46.144Z,815.63
2019-05-07T11:13:46.070Z,720.00
2019-05-07T11:14:45.995Z,658.13
2019-05-07T11:15:45.922Z,641.25
2019-05-07T11:16:45.846Z,635.63
2019-05-07T11:17:45.771Z,641.25
2019-05-07T11:18:45.695Z,641.25
2019-05-07T11:19:45.621Z,663.75
2019-05-07T11:20:50.325Z,691.88
2019-05-07T11:21:45.470Z,720.00
2019-05-07T11:22:45.399Z,765.00
2019-05-07T11:23:45.321Z,871.88
2019-05-07T11:24:45.248Z,1676.25
2019-05-07T11:25:45.172Z,1248.75
2019-05-07T11:34:52.819Z,691.88
2019-05-07T11:35:48.688Z,703.13
2019-05-07T11:36:48.614Z,691.88
2019-05-07T11:37:48.540Z,708.75
2019-05-07T11:38:48.468Z,731.25
2019-05-07T11:39:48.393Z,787.50
2019-05-07T11:40:48.318Z,860.63
2019-05-07T11:41:48.247Z,984.38
2019-05-07T11:42:48.175Z,1080.00
2019-05-07T11:47:13.493Z,3982.50
2019-05-07T11:48:13.125Z,4111.88
2019-05-07T11:50:11.974Z,4556.25
2019-05-07T11:51:12.282Z,4674.38
2019-05-07T11:52:12.258Z,4747.50
2019-05-07T11:53:10.243Z,4882.50
2019-05-07T11:54:12.387Z,1918.13
2019-05-07T11:55:11.998Z,4950.00
2019-05-07T11:56:11.755Z,2835.00
2019-05-07T11:57:11.683Z,2964.38
2019-05-07T11:58:10.095Z,2503.13
2019-05-07T11:59:13.112Z,838.13
2019-05-07T12:00:09.760Z,770.63
2019-05-07T12:01:09.689Z,776.25
2019-05-07T12:02:09.622Z,781.88
2019-05-07T12:03:09.552Z,770.63
2019-05-07T12:04:09.484Z,798.75
2019-05-07T12:05:09.416Z,900.00
2019-05-07T12:06:09.352Z,973.13
2019-05-07T12:08:36.374Z,4460.63
2019-05-07T12:09:22.300Z,922.50
2019-05-07T12:10:22.333Z,933.75
2019-05-07T12:11:22.159Z,933.75
2019-05-07T12:12:22.281Z,950.63
2019-05-07T12:13:22.019Z,1001.25
2019-05-07T12:14:30.930Z,1006.88
2019-05-07T12:15:21.878Z,1023.75
2019-05-07T12:16:22.336Z,1023.75
2019-05-07T12:17:22.366Z,1108.13
2019-05-07T12:18:22.770Z,4820.63
2019-05-07T12:19:22.632Z,4471.88
2019-05-07T12:20:21.894Z,3886.88
2019-05-07T12:21:24.189Z,1946.25
2019-05-07T12:22:21.384Z,1181.25
2019-05-07T12:23:22.632Z,1170.00
2019-05-07T12:24:22.320Z,860.63
2019-05-07T12:25:21.175Z,984.38
2019-05-07T12:26:22.261Z,1265.63
2019-05-07T12:27:22.999Z,1170.00
2019-05-07T12:28:22.575Z,888.75
2019-05-07T12:29:22.061Z,832.50
2019-05-07T12:32:22.065Z,798.75
2019-05-07T12:34:22.785Z,798.75
2019-05-07T12:35:21.968Z,826.88
2019-05-07T12:36:22.570Z,849.38
2019-05-07T12:37:22.430Z,883.13
2019-05-07T12:40:20.121Z,832.50
2019-05-07T12:44:22.050Z,725.63
2019-05-07T12:45:19.765Z,765.00
2019-05-07T12:46:19.693Z,731.25
2019-05-07T12:47:19.621Z,658.13
2019-05-07T12:48:21.456Z,596.25
2019-05-07T12:49:19.480Z,579.38
2019-05-07T12:50:19.458Z,596.25
2019-05-07T12:51:31.624Z,601.88
2019-05-07T12:52:19.265Z,601.88
2019-05-07T12:53:19.194Z,624.38
2019-05-07T12:54:19.123Z,641.25
2019-05-07T12:55:19.051Z,691.88
2019-05-07T12:56:18.980Z,748.13
2019-05-07T12:57:18.907Z,821.25
2019-05-07T12:58:18.837Z,905.63
2019-05-07T12:59:18.765Z,1012.50
2019-05-07T13:00:18.692Z,1119.38
2019-05-07T13:01:18.624Z,1738.13
2019-05-07T13:02:36.429Z,3408.75
2019-05-07T13:03:18.478Z,3937.50
2019-05-07T13:04:18.433Z,4910.63
2019-05-07T13:07:05.763Z,4578.75
2019-05-07T13:08:05.687Z,4657.50
2019-05-07T13:09:05.618Z,1755.00
2019-05-07T13:11:05.481Z,1378.13
2019-05-07T13:12:05.414Z,1456.88
2019-05-07T13:14:05.276Z,3121.88
2019-05-07T13:15:05.206Z,4235.63
2019-05-07T13:16:05.139Z,2986.88
2019-05-07T13:17:05.070Z,4151.25
2019-05-07T13:18:05.003Z,3858.75
2019-05-07T13:19:04.936Z,3611.25
2019-05-07T13:20:04.874Z,4376.25
2019-05-07T13:21:04.805Z,4235.63
2019-05-07T13:22:04.736Z,4066.88